EWG4215 EDDB-ENGM
Flight info
| Callsign | EWG4215 |
|---|---|
| Flight time | 1h 22m |
| Altitude | 36000 |
| Route | GERGA4B GERGA M725 RENKI Y89 USEDU DCT BIKRU/N0451F380 DCT SABAK L997 LUNIP LUNIP4M |
| Aircraft | A320/M-V/N |
Departure
| Time | 2026-05-08 08:52 |
|---|---|
| Airport | Berlin Brandenburg Airport (EDDB) |
Arrival
| Time | 2026-05-08 10:14 |
|---|---|
| Airport | Oslo-Gardermoen International Airport (ENGM) |
| Time | Latitude | Longitude | Altitude | Speed | Heading |
|---|---|---|---|---|---|
| 2026-05-08 08:05 | 52.36215 | 13.50718 | 156 ft | 0 kts | 67° |
| 2026-05-08 08:40 | 52.36210 | 13.50696 | 156 ft | 4 kts | 66° |
| 2026-05-08 08:40 | 52.36199 | 13.50656 | 155 ft | 4 kts | 67° |
| 2026-05-08 08:40 | 52.36191 | 13.50623 | 155 ft | 4 kts | 70° |
| 2026-05-08 08:41 | 52.36187 | 13.50582 | 154 ft | 4 kts | 115° |
| 2026-05-08 08:41 | 52.36203 | 13.50555 | 154 ft | 3 kts | 158° |
| 2026-05-08 08:41 | 52.36222 | 13.50543 | 154 ft | 0 kts | 159° |
| 2026-05-08 08:45 | 52.36219 | 13.50545 | 154 ft | 4 kts | 159° |
| 2026-05-08 08:46 | 52.36170 | 13.50577 | 154 ft | 8 kts | 158° |
| 2026-05-08 08:46 | 52.36125 | 13.50606 | 154 ft | 6 kts | 158° |
| 2026-05-08 08:46 | 52.36089 | 13.50629 | 154 ft | 5 kts | 158° |
| 2026-05-08 08:46 | 52.36060 | 13.50648 | 154 ft | 4 kts | 158° |
| 2026-05-08 08:47 | 52.36016 | 13.50676 | 154 ft | 14 kts | 159° |
| 2026-05-08 08:47 | 52.35887 | 13.50752 | 155 ft | 22 kts | 159° |
| 2026-05-08 08:47 | 52.35789 | 13.50687 | 154 ft | 15 kts | 249° |
| 2026-05-08 08:47 | 52.35748 | 13.50514 | 156 ft | 19 kts | 249° |
| 2026-05-08 08:48 | 52.35698 | 13.50295 | 157 ft | 21 kts | 249° |
| 2026-05-08 08:48 | 52.35642 | 13.50072 | 156 ft | 21 kts | 250° |
| 2026-05-08 08:48 | 52.35585 | 13.49826 | 155 ft | 26 kts | 248° |
| 2026-05-08 08:48 | 52.35518 | 13.49541 | 157 ft | 27 kts | 249° |
| 2026-05-08 08:49 | 52.35448 | 13.49251 | 159 ft | 28 kts | 249° |
| 2026-05-08 08:49 | 52.35376 | 13.48947 | 159 ft | 29 kts | 249° |
| 2026-05-08 08:49 | 52.35300 | 13.48627 | 157 ft | 31 kts | 249° |
| 2026-05-08 08:49 | 52.35203 | 13.48496 | 157 ft | 15 kts | 165° |
| 2026-05-08 08:50 | 52.35122 | 13.48557 | 159 ft | 11 kts | 141° |
| 2026-05-08 08:50 | 52.35098 | 13.48669 | 159 ft | 11 kts | 102° |
| 2026-05-08 08:50 | 52.35086 | 13.48812 | 160 ft | 15 kts | 97° |
| 2026-05-08 08:50 | 52.35076 | 13.48990 | 159 ft | 17 kts | 93° |
| 2026-05-08 08:51 | 52.35101 | 13.49182 | 159 ft | 19 kts | 69° |
| 2026-05-08 08:51 | 52.35205 | 13.49624 | 159 ft | 76 kts | 69° |
| 2026-05-08 08:51 | 52.35478 | 13.50767 | 161 ft | 136 kts | 69° |
| 2026-05-08 08:51 | 52.35859 | 13.52331 | 639 ft | 145 kts | 69° |
| 2026-05-08 08:52 | 52.35865 | 13.53936 | 1366 ft | 149 kts | 118° |
| 2026-05-08 08:52 | 52.35409 | 13.54798 | 1741 ft | 156 kts | 137° |
| 2026-05-08 08:52 | 52.34495 | 13.55972 | 2102 ft | 178 kts | 141° |
| 2026-05-08 08:52 | 52.33457 | 13.57281 | 2470 ft | 197 kts | 140° |
| 2026-05-08 08:53 | 52.32388 | 13.58728 | 3076 ft | 202 kts | 136° |
| 2026-05-08 08:53 | 52.31438 | 13.60544 | 3487 ft | 220 kts | 129° |
| 2026-05-08 08:53 | 52.30378 | 13.62463 | 4196 ft | 224 kts | 131° |
| 2026-05-08 08:53 | 52.29337 | 13.64313 | 5222 ft | 220 kts | 130° |
| 2026-05-08 08:54 | 52.28545 | 13.66520 | 5738 ft | 236 kts | 103° |
| 2026-05-08 08:54 | 52.28571 | 13.69237 | 6359 ft | 247 kts | 71° |
| 2026-05-08 08:54 | 52.29534 | 13.71629 | 6920 ft | 265 kts | 38° |
| 2026-05-08 08:54 | 52.31261 | 13.72723 | 7646 ft | 275 kts | 4° |
| 2026-05-08 08:55 | 52.33186 | 13.72681 | 8537 ft | 278 kts | 358° |
| 2026-05-08 08:55 | 52.35128 | 13.72662 | 9440 ft | 281 kts | 4° |
| 2026-05-08 08:55 | 52.37093 | 13.72911 | 10317 ft | 285 kts | 5° |
| 2026-05-08 08:55 | 52.39146 | 13.73203 | 10668 ft | 308 kts | 5° |
| 2026-05-08 08:56 | 52.41364 | 13.73546 | 10926 ft | 332 kts | 6° |
| 2026-05-08 08:56 | 52.43687 | 13.73921 | 11338 ft | 347 kts | 6° |
| 2026-05-08 08:56 | 52.46109 | 13.74315 | 12011 ft | 353 kts | 6° |
| 2026-05-08 08:56 | 52.48569 | 13.74713 | 12754 ft | 357 kts | 5° |
| 2026-05-08 08:57 | 52.51057 | 13.75114 | 13499 ft | 361 kts | 5° |
| 2026-05-08 08:57 | 52.53569 | 13.75519 | 14218 ft | 365 kts | 5° |
| 2026-05-08 08:57 | 52.56111 | 13.75932 | 14868 ft | 369 kts | 5° |
| 2026-05-08 08:57 | 52.58683 | 13.76351 | 15512 ft | 373 kts | 5° |
| 2026-05-08 08:58 | 52.61286 | 13.76773 | 16148 ft | 377 kts | 4° |
| 2026-05-08 08:58 | 52.63909 | 13.77196 | 16772 ft | 381 kts | 4° |
| 2026-05-08 08:58 | 52.66548 | 13.77626 | 17383 ft | 385 kts | 4° |
| 2026-05-08 08:58 | 52.69227 | 13.78063 | 17976 ft | 389 kts | 4° |
| 2026-05-08 08:59 | 52.71953 | 13.78508 | 18566 ft | 393 kts | 4° |
| 2026-05-08 08:59 | 52.74687 | 13.78957 | 19080 ft | 396 kts | 4° |
| 2026-05-08 08:59 | 52.77446 | 13.79412 | 19608 ft | 399 kts | 4° |
| 2026-05-08 08:59 | 52.80186 | 13.79863 | 20131 ft | 402 kts | 4° |
| 2026-05-08 09:00 | 52.83016 | 13.80329 | 20661 ft | 405 kts | 4° |
| 2026-05-08 09:00 | 52.85794 | 13.80785 | 21157 ft | 408 kts | 4° |
| 2026-05-08 09:00 | 52.88632 | 13.81252 | 21657 ft | 411 kts | 4° |
| 2026-05-08 09:00 | 52.91492 | 13.81723 | 22157 ft | 414 kts | 4° |
| 2026-05-08 09:01 | 52.94370 | 13.82202 | 22644 ft | 417 kts | 4° |
| 2026-05-08 09:01 | 52.97272 | 13.82683 | 23127 ft | 420 kts | 4° |
| 2026-05-08 09:01 | 53.00193 | 13.83161 | 23605 ft | 423 kts | 4° |
| 2026-05-08 09:01 | 53.03132 | 13.83643 | 24027 ft | 426 kts | 4° |
| 2026-05-08 09:02 | 53.06090 | 13.84133 | 24422 ft | 428 kts | 4° |
| 2026-05-08 09:02 | 53.09067 | 13.84628 | 24825 ft | 430 kts | 4° |
| 2026-05-08 09:02 | 53.12056 | 13.85125 | 25226 ft | 433 kts | 4° |
| 2026-05-08 09:02 | 53.15055 | 13.85622 | 25617 ft | 435 kts | 4° |
| 2026-05-08 09:03 | 53.18072 | 13.86123 | 26004 ft | 437 kts | 4° |
| 2026-05-08 09:03 | 53.21104 | 13.86632 | 26382 ft | 439 kts | 4° |
| 2026-05-08 09:03 | 53.24149 | 13.87145 | 26765 ft | 441 kts | 4° |
| 2026-05-08 09:03 | 53.27213 | 13.87664 | 27135 ft | 443 kts | 4° |
| 2026-05-08 09:04 | 53.30287 | 13.88181 | 27483 ft | 445 kts | 4° |
| 2026-05-08 09:04 | 53.33376 | 13.88698 | 27834 ft | 447 kts | 4° |
| 2026-05-08 09:04 | 53.36481 | 13.89216 | 28174 ft | 449 kts | 4° |
| 2026-05-08 09:04 | 53.39600 | 13.89736 | 28519 ft | 452 kts | 4° |
| 2026-05-08 09:05 | 53.42735 | 13.90263 | 28852 ft | 454 kts | 4° |
| 2026-05-08 09:05 | 53.45883 | 13.90797 | 29170 ft | 456 kts | 4° |
| 2026-05-08 09:05 | 53.49000 | 13.91331 | 29502 ft | 457 kts | 4° |
| 2026-05-08 09:05 | 53.52161 | 13.91871 | 29961 ft | 456 kts | 4° |
| 2026-05-08 09:06 | 53.55313 | 13.92405 | 30416 ft | 455 kts | 4° |
| 2026-05-08 09:06 | 53.58463 | 13.92937 | 30785 ft | 454 kts | 4° |
| 2026-05-08 09:06 | 53.61601 | 13.93473 | 31141 ft | 454 kts | 4° |
| 2026-05-08 09:06 | 53.64741 | 13.94016 | 31491 ft | 453 kts | 4° |
| 2026-05-08 09:07 | 53.67881 | 13.94561 | 31848 ft | 453 kts | 4° |
| 2026-05-08 09:07 | 53.71021 | 13.95102 | 32205 ft | 453 kts | 4° |
| 2026-05-08 09:07 | 53.74159 | 13.95637 | 32559 ft | 453 kts | 4° |
| 2026-05-08 09:07 | 53.77294 | 13.96172 | 32912 ft | 453 kts | 4° |
| 2026-05-08 09:08 | 53.80426 | 13.96705 | 33269 ft | 452 kts | 4° |
| 2026-05-08 09:08 | 53.83552 | 13.97238 | 33629 ft | 452 kts | 4° |
| 2026-05-08 09:08 | 53.86681 | 13.97776 | 33977 ft | 451 kts | 4° |
| 2026-05-08 09:08 | 53.89805 | 13.98317 | 34323 ft | 451 kts | 4° |
| 2026-05-08 09:09 | 53.92929 | 13.98854 | 34591 ft | 452 kts | 4° |
| 2026-05-08 09:09 | 53.96059 | 13.99391 | 34859 ft | 452 kts | 4° |
| 2026-05-08 09:09 | 53.99159 | 13.99932 | 35105 ft | 453 kts | 4° |
| 2026-05-08 09:09 | 54.02294 | 14.00491 | 35344 ft | 454 kts | 4° |
| 2026-05-08 09:10 | 54.05437 | 14.01059 | 35577 ft | 454 kts | 4° |
| 2026-05-08 09:10 | 54.08583 | 14.01627 | 35815 ft | 455 kts | 4° |
| 2026-05-08 09:10 | 54.11739 | 14.02194 | 36008 ft | 456 kts | 4° |
| 2026-05-08 09:10 | 54.14896 | 14.02754 | 36135 ft | 457 kts | 4° |
| 2026-05-08 09:11 | 54.18064 | 14.03315 | 36261 ft | 458 kts | 4° |
| 2026-05-08 09:11 | 54.21234 | 14.03877 | 36387 ft | 458 kts | 5° |
| 2026-05-08 09:11 | 54.24403 | 14.04441 | 36513 ft | 458 kts | 4° |
| 2026-05-08 09:11 | 54.27574 | 14.05004 | 36440 ft | 457 kts | 4° |
| 2026-05-08 09:12 | 54.30733 | 14.05042 | 36234 ft | 452 kts | 351° |
| 2026-05-08 09:12 | 54.33796 | 14.03865 | 36271 ft | 452 kts | 343° |
| 2026-05-08 09:12 | 54.39868 | 14.00939 | 36270 ft | 453 kts | 342° |
| 2026-05-08 09:13 | 54.45892 | 13.97949 | 36271 ft | 454 kts | 342° |
| 2026-05-08 09:13 | 54.51999 | 13.94907 | 36272 ft | 454 kts | 342° |
| 2026-05-08 09:14 | 54.58031 | 13.91915 | 36272 ft | 455 kts | 342° |
| 2026-05-08 09:14 | 54.64122 | 13.88892 | 36275 ft | 456 kts | 342° |
| 2026-05-08 09:15 | 54.70212 | 13.85848 | 36280 ft | 456 kts | 342° |
| 2026-05-08 09:15 | 54.76299 | 13.82795 | 36281 ft | 456 kts | 342° |
| 2026-05-08 09:16 | 54.82388 | 13.79731 | 36287 ft | 456 kts | 343° |
| 2026-05-08 09:16 | 54.88480 | 13.76658 | 36284 ft | 456 kts | 343° |
| 2026-05-08 09:17 | 54.94574 | 13.73578 | 36285 ft | 456 kts | 343° |
| 2026-05-08 09:17 | 55.00665 | 13.70486 | 36285 ft | 456 kts | 343° |
| 2026-05-08 09:18 | 55.06717 | 13.67392 | 36289 ft | 456 kts | 343° |
| 2026-05-08 09:18 | 55.12812 | 13.64278 | 36294 ft | 456 kts | 343° |
| 2026-05-08 09:19 | 55.18912 | 13.61147 | 36294 ft | 457 kts | 343° |
| 2026-05-08 09:19 | 55.25014 | 13.58009 | 36292 ft | 457 kts | 343° |
| 2026-05-08 09:20 | 55.31118 | 13.54867 | 36290 ft | 457 kts | 343° |
| 2026-05-08 09:20 | 55.37223 | 13.51702 | 36289 ft | 458 kts | 343° |
| 2026-05-08 09:21 | 55.43334 | 13.48525 | 36286 ft | 458 kts | 343° |
| 2026-05-08 09:23 | 55.64701 | 13.37331 | 36283 ft | 459 kts | 343° |
| 2026-05-08 09:23 | 55.70834 | 13.34108 | 36286 ft | 459 kts | 343° |
| 2026-05-08 09:24 | 55.76960 | 13.30880 | 36283 ft | 459 kts | 343° |
| 2026-05-08 09:24 | 55.83090 | 13.27624 | 36291 ft | 460 kts | 343° |
| 2026-05-08 09:25 | 55.89228 | 13.24344 | 36295 ft | 460 kts | 344° |
| 2026-05-08 09:25 | 55.95364 | 13.21067 | 36296 ft | 461 kts | 344° |
| 2026-05-08 09:26 | 56.01508 | 13.17785 | 36302 ft | 461 kts | 344° |
| 2026-05-08 09:26 | 56.07644 | 13.14490 | 36303 ft | 461 kts | 344° |
| 2026-05-08 09:27 | 56.13777 | 13.11175 | 36301 ft | 460 kts | 343° |
| 2026-05-08 09:27 | 56.19881 | 13.07868 | 36296 ft | 460 kts | 344° |
| 2026-05-08 09:28 | 56.26012 | 13.04550 | 36272 ft | 461 kts | 344° |
| 2026-05-08 09:28 | 56.32152 | 13.01209 | 36271 ft | 461 kts | 343° |
| 2026-05-08 09:29 | 56.38286 | 12.97847 | 36277 ft | 461 kts | 343° |
| 2026-05-08 09:29 | 56.44422 | 12.94483 | 36278 ft | 461 kts | 343° |
| 2026-05-08 09:30 | 56.50560 | 12.91105 | 36297 ft | 461 kts | 343° |
| 2026-05-08 09:30 | 56.56658 | 12.87743 | 36298 ft | 461 kts | 343° |
| 2026-05-08 09:31 | 56.62797 | 12.84338 | 36299 ft | 461 kts | 343° |
| 2026-05-08 09:31 | 56.68937 | 12.80921 | 36298 ft | 462 kts | 343° |
| 2026-05-08 09:32 | 56.75078 | 12.77482 | 36301 ft | 462 kts | 343° |
| 2026-05-08 09:32 | 56.81228 | 12.74039 | 36298 ft | 462 kts | 343° |
| 2026-05-08 09:33 | 56.87379 | 12.70591 | 36294 ft | 462 kts | 343° |
| 2026-05-08 09:33 | 56.93535 | 12.67132 | 36292 ft | 462 kts | 343° |
| 2026-05-08 09:34 | 56.99688 | 12.63657 | 36286 ft | 462 kts | 343° |
| 2026-05-08 09:34 | 57.05799 | 12.60182 | 36280 ft | 462 kts | 343° |
| 2026-05-08 09:35 | 57.11958 | 12.56660 | 36285 ft | 463 kts | 343° |
| 2026-05-08 09:35 | 57.18102 | 12.53139 | 36283 ft | 463 kts | 343° |
| 2026-05-08 09:36 | 57.24254 | 12.49617 | 36283 ft | 463 kts | 343° |
| 2026-05-08 09:36 | 57.30407 | 12.46087 | 36283 ft | 463 kts | 342° |
| 2026-05-08 09:37 | 57.36415 | 12.42607 | 36279 ft | 463 kts | 342° |
| 2026-05-08 09:37 | 57.42494 | 12.39080 | 36281 ft | 463 kts | 342° |
| 2026-05-08 09:38 | 57.48647 | 12.35498 | 36274 ft | 463 kts | 342° |
| 2026-05-08 09:38 | 57.54808 | 12.31924 | 36270 ft | 464 kts | 342° |
| 2026-05-08 09:39 | 57.60968 | 12.28316 | 36270 ft | 464 kts | 342° |
| 2026-05-08 09:39 | 57.67107 | 12.24699 | 36271 ft | 456 kts | 342° |
| 2026-05-08 09:39 | 57.70093 | 12.22947 | 36271 ft | 444 kts | 342° |
| 2026-05-08 09:40 | 57.73022 | 12.21228 | 36274 ft | 440 kts | 342° |
| 2026-05-08 09:40 | 57.78850 | 12.17778 | 36274 ft | 438 kts | 341° |
| 2026-05-08 09:41 | 57.84651 | 12.14316 | 36275 ft | 438 kts | 341° |
| 2026-05-08 09:41 | 57.87599 | 12.12898 | 36273 ft | 438 kts | 354° |
| 2026-05-08 09:41 | 57.90624 | 12.13033 | 36276 ft | 437 kts | 12° |
| 2026-05-08 09:41 | 57.93450 | 12.14830 | 36277 ft | 435 kts | 30° |
| 2026-05-08 09:42 | 57.96020 | 12.17831 | 36272 ft | 434 kts | 35° |
| 2026-05-08 09:42 | 58.01015 | 12.24229 | 36260 ft | 435 kts | 35° |
| 2026-05-08 09:43 | 58.06014 | 12.30689 | 36259 ft | 435 kts | 36° |
| 2026-05-08 09:43 | 58.11014 | 12.37176 | 36261 ft | 436 kts | 36° |
| 2026-05-08 09:44 | 58.16020 | 12.43694 | 36267 ft | 437 kts | 36° |
| 2026-05-08 09:44 | 58.21346 | 12.49453 | 36107 ft | 453 kts | 17° |
| 2026-05-08 09:44 | 58.24468 | 12.50498 | 35851 ft | 460 kts | 0° |
| 2026-05-08 09:45 | 58.27640 | 12.49775 | 35598 ft | 461 kts | 342° |
| 2026-05-08 09:45 | 58.29620 | 12.48317 | 35436 ft | 460 kts | 330° |
| 2026-05-08 09:45 | 58.32322 | 12.45061 | 35186 ft | 461 kts | 324° |
| 2026-05-08 09:45 | 58.34976 | 12.41622 | 34936 ft | 462 kts | 324° |
| 2026-05-08 09:46 | 58.37637 | 12.38177 | 34713 ft | 463 kts | 324° |
| 2026-05-08 09:46 | 58.40309 | 12.34731 | 34465 ft | 464 kts | 324° |
| 2026-05-08 09:46 | 58.42988 | 12.31282 | 34217 ft | 465 kts | 324° |
| 2026-05-08 09:46 | 58.45669 | 12.27829 | 33942 ft | 465 kts | 324° |
| 2026-05-08 09:47 | 58.48354 | 12.24369 | 33666 ft | 466 kts | 324° |
| 2026-05-08 09:47 | 58.51044 | 12.20898 | 33391 ft | 466 kts | 324° |
| 2026-05-08 09:47 | 58.53694 | 12.17464 | 33123 ft | 466 kts | 324° |
| 2026-05-08 09:47 | 58.56381 | 12.13967 | 32858 ft | 467 kts | 324° |
| 2026-05-08 09:48 | 58.59069 | 12.10460 | 32595 ft | 467 kts | 324° |
| 2026-05-08 09:48 | 58.61756 | 12.06953 | 32328 ft | 467 kts | 324° |
| 2026-05-08 09:48 | 58.64442 | 12.03440 | 32070 ft | 467 kts | 324° |
| 2026-05-08 09:48 | 58.67124 | 11.99916 | 31810 ft | 468 kts | 324° |
| 2026-05-08 09:49 | 58.69808 | 11.96384 | 31552 ft | 468 kts | 324° |
| 2026-05-08 09:49 | 58.72497 | 11.92851 | 31289 ft | 468 kts | 324° |
| 2026-05-08 09:49 | 58.75193 | 11.89310 | 31058 ft | 468 kts | 324° |
| 2026-05-08 09:49 | 58.77887 | 11.85761 | 30802 ft | 469 kts | 324° |
| 2026-05-08 09:50 | 58.80583 | 11.82199 | 30551 ft | 469 kts | 324° |
| 2026-05-08 09:50 | 58.83238 | 11.78680 | 30303 ft | 469 kts | 324° |
| 2026-05-08 09:50 | 58.85926 | 11.75112 | 30015 ft | 469 kts | 324° |
| 2026-05-08 09:50 | 58.88727 | 11.71916 | 29719 ft | 464 kts | 335° |
| 2026-05-08 09:51 | 58.91761 | 11.70068 | 29426 ft | 451 kts | 345° |
| 2026-05-08 09:51 | 58.94778 | 11.68662 | 29154 ft | 443 kts | 345° |
| 2026-05-08 09:51 | 58.97755 | 11.67280 | 28872 ft | 438 kts | 345° |
| 2026-05-08 09:51 | 59.00716 | 11.65905 | 28596 ft | 436 kts | 345° |
| 2026-05-08 09:52 | 59.03659 | 11.64536 | 28322 ft | 434 kts | 345° |
| 2026-05-08 09:52 | 59.06593 | 11.63174 | 28054 ft | 432 kts | 345° |
| 2026-05-08 09:52 | 59.09511 | 11.61813 | 27723 ft | 431 kts | 345° |
| 2026-05-08 09:52 | 59.12435 | 11.60436 | 26927 ft | 433 kts | 345° |
| 2026-05-08 09:53 | 59.15333 | 11.59067 | 26578 ft | 424 kts | 345° |
| 2026-05-08 09:53 | 59.18187 | 11.57723 | 25827 ft | 423 kts | 345° |
| 2026-05-08 09:53 | 59.21088 | 11.56351 | 24681 ft | 435 kts | 345° |
| 2026-05-08 09:53 | 59.24038 | 11.54952 | 23939 ft | 436 kts | 345° |
| 2026-05-08 09:54 | 59.26976 | 11.53556 | 23318 ft | 431 kts | 345° |
| 2026-05-08 09:54 | 59.29830 | 11.52199 | 23169 ft | 414 kts | 345° |
| 2026-05-08 09:54 | 59.32586 | 11.50894 | 23025 ft | 399 kts | 345° |
| 2026-05-08 09:54 | 59.35206 | 11.49658 | 22884 ft | 386 kts | 345° |
| 2026-05-08 09:55 | 59.37776 | 11.48444 | 22743 ft | 373 kts | 344° |
| 2026-05-08 09:55 | 59.40289 | 11.47499 | 22540 ft | 365 kts | 353° |
| 2026-05-08 09:55 | 59.42816 | 11.47505 | 22228 ft | 361 kts | 5° |
| 2026-05-08 09:55 | 59.45272 | 11.48488 | 21917 ft | 360 kts | 17° |
| 2026-05-08 09:56 | 59.47650 | 11.49995 | 21445 ft | 359 kts | 17° |
| 2026-05-08 09:56 | 59.50027 | 11.51511 | 20965 ft | 359 kts | 17° |
| 2026-05-08 09:56 | 59.52397 | 11.53013 | 20563 ft | 356 kts | 17° |
| 2026-05-08 09:56 | 59.54753 | 11.54503 | 20116 ft | 355 kts | 17° |
| 2026-05-08 09:57 | 59.59412 | 11.57453 | 19387 ft | 349 kts | 17° |
| 2026-05-08 09:57 | 59.61709 | 11.58915 | 18752 ft | 345 kts | 17° |
| 2026-05-08 09:57 | 59.63988 | 11.60368 | 18157 ft | 345 kts | 17° |
| 2026-05-08 09:58 | 59.66316 | 11.61223 | 17857 ft | 338 kts | 359° |
| 2026-05-08 09:58 | 59.68633 | 11.60796 | 17592 ft | 333 kts | 351° |
| 2026-05-08 09:58 | 59.70927 | 11.60181 | 17314 ft | 332 kts | 350° |
| 2026-05-08 09:58 | 59.73209 | 11.59555 | 17047 ft | 331 kts | 350° |
| 2026-05-08 09:59 | 59.75482 | 11.58931 | 16781 ft | 329 kts | 350° |
| 2026-05-08 09:59 | 59.77752 | 11.58303 | 16517 ft | 328 kts | 350° |
| 2026-05-08 09:59 | 59.80008 | 11.57681 | 16258 ft | 327 kts | 350° |
| 2026-05-08 09:59 | 59.82225 | 11.57069 | 15996 ft | 325 kts | 350° |
| 2026-05-08 10:00 | 59.84461 | 11.56455 | 15743 ft | 324 kts | 350° |
| 2026-05-08 10:00 | 59.86692 | 11.55845 | 15490 ft | 323 kts | 350° |
| 2026-05-08 10:00 | 59.88912 | 11.55237 | 15235 ft | 321 kts | 350° |
| 2026-05-08 10:00 | 59.91125 | 11.54623 | 14990 ft | 320 kts | 350° |
| 2026-05-08 10:01 | 59.93074 | 11.54078 | 14777 ft | 319 kts | 350° |
| 2026-05-08 10:01 | 59.95268 | 11.53464 | 14517 ft | 318 kts | 350° |
| 2026-05-08 10:01 | 59.97456 | 11.52855 | 14269 ft | 317 kts | 350° |
| 2026-05-08 10:01 | 59.99631 | 11.52252 | 14032 ft | 316 kts | 350° |
| 2026-05-08 10:02 | 60.01804 | 11.51651 | 13754 ft | 315 kts | 350° |
| 2026-05-08 10:02 | 60.03973 | 11.51050 | 13480 ft | 314 kts | 350° |
| 2026-05-08 10:02 | 60.06129 | 11.50452 | 13116 ft | 313 kts | 350° |
| 2026-05-08 10:02 | 60.08302 | 11.49845 | 12621 ft | 316 kts | 350° |
| 2026-05-08 10:03 | 60.10472 | 11.49235 | 12254 ft | 314 kts | 350° |
| 2026-05-08 10:03 | 60.12654 | 11.48616 | 11865 ft | 314 kts | 350° |
| 2026-05-08 10:03 | 60.14808 | 11.48012 | 11527 ft | 312 kts | 350° |
| 2026-05-08 10:03 | 60.16953 | 11.47410 | 11151 ft | 310 kts | 350° |
| 2026-05-08 10:04 | 60.19076 | 11.46811 | 10528 ft | 307 kts | 350° |
| 2026-05-08 10:04 | 60.21164 | 11.46222 | 9858 ft | 306 kts | 350° |
| 2026-05-08 10:04 | 60.23262 | 11.45631 | 9179 ft | 303 kts | 350° |
| 2026-05-08 10:04 | 60.25340 | 11.45047 | 8526 ft | 299 kts | 350° |
| 2026-05-08 10:05 | 60.27383 | 11.44473 | 7890 ft | 295 kts | 349° |
| 2026-05-08 10:05 | 60.29402 | 11.43903 | 7276 ft | 290 kts | 349° |
| 2026-05-08 10:05 | 60.31380 | 11.43341 | 6733 ft | 284 kts | 349° |
| 2026-05-08 10:05 | 60.33327 | 11.42790 | 6091 ft | 285 kts | 349° |
| 2026-05-08 10:06 | 60.35297 | 11.42223 | 5757 ft | 281 kts | 349° |
| 2026-05-08 10:06 | 60.37176 | 11.41694 | 5463 ft | 266 kts | 349° |
| 2026-05-08 10:06 | 60.38983 | 11.41154 | 5182 ft | 258 kts | 345° |
| 2026-05-08 10:06 | 60.40522 | 11.39663 | 5044 ft | 236 kts | 313° |
| 2026-05-08 10:07 | 60.41431 | 11.37084 | 4994 ft | 218 kts | 285° |
| 2026-05-08 10:07 | 60.41667 | 11.34231 | 4995 ft | 198 kts | 262° |
| 2026-05-08 10:07 | 60.41491 | 11.31559 | 4870 ft | 188 kts | 257° |
| 2026-05-08 10:07 | 60.41293 | 11.28980 | 4737 ft | 183 kts | 257° |
| 2026-05-08 10:08 | 60.41103 | 11.26501 | 4638 ft | 173 kts | 257° |
| 2026-05-08 10:08 | 60.40922 | 11.24141 | 4451 ft | 168 kts | 256° |
| 2026-05-08 10:08 | 60.40564 | 11.21944 | 4308 ft | 164 kts | 237° |
| 2026-05-08 10:08 | 60.39834 | 11.20217 | 4178 ft | 162 kts | 216° |
| 2026-05-08 10:09 | 60.38837 | 11.19182 | 4083 ft | 162 kts | 196° |
| 2026-05-08 10:09 | 60.37759 | 11.18562 | 3998 ft | 158 kts | 196° |
| 2026-05-08 10:09 | 60.36717 | 11.17949 | 3840 ft | 154 kts | 196° |
| 2026-05-08 10:09 | 60.35688 | 11.17347 | 3659 ft | 155 kts | 195° |
| 2026-05-08 10:10 | 60.34650 | 11.16740 | 3451 ft | 156 kts | 195° |
| 2026-05-08 10:10 | 60.33622 | 11.16141 | 3236 ft | 154 kts | 195° |
| 2026-05-08 10:10 | 60.32593 | 11.15542 | 3027 ft | 153 kts | 195° |
| 2026-05-08 10:10 | 60.31573 | 11.14948 | 2835 ft | 153 kts | 195° |
| 2026-05-08 10:11 | 60.30552 | 11.14356 | 2602 ft | 152 kts | 195° |
| 2026-05-08 10:11 | 60.29535 | 11.13789 | 2389 ft | 152 kts | 195° |
| 2026-05-08 10:11 | 60.28516 | 11.13207 | 2280 ft | 152 kts | 197° |
| 2026-05-08 10:11 | 60.27505 | 11.12570 | 2080 ft | 152 kts | 194° |
| 2026-05-08 10:12 | 60.26511 | 11.11973 | 1760 ft | 148 kts | 196° |
| 2026-05-08 10:12 | 60.25537 | 11.11434 | 1507 ft | 143 kts | 193° |
| 2026-05-08 10:12 | 60.24602 | 11.10903 | 1317 ft | 138 kts | 194° |
| 2026-05-08 10:12 | 60.23669 | 11.10363 | 1125 ft | 143 kts | 194° |
| 2026-05-08 10:13 | 60.22704 | 11.09801 | 965 ft | 144 kts | 194° |
| 2026-05-08 10:13 | 60.21745 | 11.09243 | 752 ft | 142 kts | 194° |
| 2026-05-08 10:13 | 60.20844 | 11.08729 | 676 ft | 123 kts | 196° |
| 2026-05-08 10:13 | 60.20187 | 11.08347 | 676 ft | 73 kts | 196° |
| 2026-05-08 10:14 | 60.19862 | 11.08161 | 673 ft | 28 kts | 195° |
| 2026-05-08 10:14 | 60.19686 | 11.08119 | 672 ft | 25 kts | 176° |
| 2026-05-08 10:14 | 60.19577 | 11.08255 | 670 ft | 11 kts | 110° |
| 2026-05-08 10:14 | 60.19571 | 11.08288 | 672 ft | 0 kts | 107° |
| 2026-05-08 10:15 | 60.19571 | 11.08290 | 672 ft | 2 kts | 107° |
| 2026-05-08 10:15 | 60.19559 | 11.08370 | 672 ft | 7 kts | 107° |
| 2026-05-08 10:15 | 60.19546 | 11.08506 | 673 ft | 11 kts | 75° |
| 2026-05-08 10:15 | 60.19597 | 11.08571 | 678 ft | 10 kts | 18° |
| 2026-05-08 10:16 | 60.19701 | 11.08632 | 678 ft | 16 kts | 16° |
| 2026-05-08 10:16 | 60.19770 | 11.08744 | 675 ft | 13 kts | 96° |
| 2026-05-08 10:16 | 60.19746 | 11.08880 | 677 ft | 6 kts | 116° |
| 2026-05-08 10:16 | 60.19740 | 11.08980 | 679 ft | 7 kts | 96° |
| 2026-05-08 10:17 | 60.19738 | 11.09007 | 679 ft | 0 kts | 100° |
| 2026-05-08 10:17 | 60.19735 | 11.09023 | 676 ft | 7 kts | 105° |